createdAt,value
2023-04-24T00:01:08.540Z,10.20
2023-04-24T00:03:37.044Z,10.20
2023-04-24T00:06:06.225Z,10.30
2023-04-24T00:08:34.178Z,10.20
2023-04-24T00:11:02.127Z,10.20
2023-04-24T00:13:31.352Z,10.20
2023-04-24T00:15:59.260Z,10.10
2023-04-24T00:18:27.120Z,10.10
2023-04-24T00:20:55.081Z,10.10
2023-04-24T00:23:23.024Z,10.10
2023-04-24T00:25:51.053Z,10.10
2023-04-24T00:28:18.895Z,10.00
2023-04-24T00:30:48.090Z,10.10
2023-04-24T00:33:16.136Z,10.20
2023-04-24T00:35:44.029Z,10.10
2023-04-24T00:38:12.669Z,10.10
2023-04-24T00:40:40.703Z,10.10
2023-04-24T00:43:10.395Z,10.00
2023-04-24T00:45:38.536Z,10.00
2023-04-24T00:48:08.458Z,9.90
2023-04-24T00:50:38.364Z,10.00
2023-04-24T00:53:06.551Z,9.90
2023-04-24T00:55:34.654Z,9.90
2023-04-24T00:58:02.548Z,9.90
2023-04-24T01:00:30.993Z,9.90
2023-04-24T01:03:01.275Z,10.00
2023-04-24T01:05:30.841Z,9.90
2023-04-24T01:07:59.342Z,9.80
2023-04-24T01:10:29.278Z,9.80
2023-04-24T01:12:57.878Z,9.80
2023-04-24T01:15:25.739Z,9.80
2023-04-24T01:17:53.698Z,9.80
2023-04-24T01:20:22.908Z,9.70
2023-04-24T01:22:52.113Z,9.70
2023-04-24T01:25:20.229Z,9.60
2023-04-24T01:27:48.395Z,9.60
2023-04-24T01:30:16.943Z,9.50
2023-04-24T01:32:46.589Z,9.50
2023-04-24T01:35:14.733Z,9.50
2023-04-24T01:37:42.660Z,9.50
2023-04-24T01:40:12.491Z,9.50
2023-04-24T01:42:40.657Z,9.50
2023-04-24T01:45:12.788Z,9.40
2023-04-24T01:47:41.180Z,9.40
2023-04-24T01:50:10.602Z,9.40
2023-04-24T01:52:40.620Z,9.40
2023-04-24T01:55:11.222Z,9.40
2023-04-24T01:57:40.052Z,9.40
2023-04-24T02:00:09.043Z,9.40
2023-04-24T02:02:45.669Z,9.30
2023-04-24T02:05:15.424Z,9.30
2023-04-24T02:07:43.338Z,9.40
2023-04-24T02:10:13.167Z,9.40
2023-04-24T02:12:44.162Z,9.40
2023-04-24T02:15:13.111Z,9.30
2023-04-24T02:17:41.076Z,9.30
2023-04-24T02:20:09.954Z,9.30
2023-04-24T02:22:40.056Z,9.30
2023-04-24T02:25:08.928Z,9.30
2023-04-24T02:27:38.195Z,9.30
2023-04-24T02:30:09.103Z,9.20
2023-04-24T02:32:37.355Z,9.20
2023-04-24T02:35:05.833Z,9.20
2023-04-24T02:37:33.735Z,9.20
2023-04-24T02:40:01.660Z,9.20
2023-04-24T02:42:29.497Z,9.20
2023-04-24T02:44:59.913Z,9.20
2023-04-24T02:47:27.911Z,9.20
2023-04-24T02:49:55.789Z,9.20
2023-04-24T02:52:23.667Z,9.20
2023-04-24T02:54:51.733Z,9.20
2023-04-24T02:57:19.600Z,9.20
2023-04-24T02:59:47.486Z,9.10
2023-04-24T03:02:16.765Z,9.10
2023-04-24T03:04:44.995Z,9.10
2023-04-24T03:07:13.112Z,9.10
2023-04-24T03:09:41.266Z,9.10
2023-04-24T03:12:09.861Z,9.10
2023-04-24T03:14:37.770Z,9.10
2023-04-24T03:17:05.950Z,9.10
2023-04-24T03:19:35.172Z,9.10
2023-04-24T03:22:10.076Z,9.10
2023-04-24T03:24:38.953Z,9.00
2023-04-24T03:27:07.141Z,9.00
2023-04-24T03:30:08.639Z,9.00
2023-04-24T03:32:54.150Z,9.00
2023-04-24T03:35:28.882Z,8.90
2023-04-24T03:37:57.923Z,9.00
2023-04-24T03:40:52.096Z,9.00
2023-04-24T03:43:34.307Z,9.00
2023-04-24T03:46:02.697Z,9.00
2023-04-24T03:48:32.879Z,9.00
2023-04-24T03:51:02.528Z,9.00
2023-04-24T03:53:31.939Z,9.00
2023-04-24T03:56:00.876Z,8.90
2023-04-24T03:58:29.549Z,8.90
2023-04-24T04:00:59.306Z,8.90
2023-04-24T04:04:05.753Z,8.90
2023-04-24T04:06:35.494Z,8.90
2023-04-24T04:09:04.087Z,9.00
2023-04-24T04:11:32.381Z,9.00
2023-04-24T04:14:00.274Z,9.00
2023-04-24T04:16:28.621Z,9.00
2023-04-24T04:19:03.944Z,9.00
2023-04-24T04:21:33.183Z,8.90
2023-04-24T04:24:25.098Z,8.90
2023-04-24T04:26:57.493Z,8.90
2023-04-24T04:29:30.395Z,9.00
2023-04-24T04:31:58.413Z,9.00
2023-04-24T04:34:26.734Z,8.90
2023-04-24T04:36:54.614Z,9.00
2023-04-24T04:39:47.234Z,9.00
2023-04-24T04:42:21.110Z,9.00
2023-04-24T04:44:49.001Z,9.00
2023-04-24T04:47:24.812Z,9.10
2023-04-24T04:49:54.795Z,9.10
2023-04-24T04:52:27.475Z,9.10
2023-04-24T04:55:15.703Z,9.10
2023-04-24T04:58:09.792Z,9.10
2023-04-24T05:00:38.542Z,9.10
2023-04-24T05:03:21.222Z,9.10
2023-04-24T05:05:56.001Z,9.10
2023-04-24T05:08:27.578Z,9.10
2023-04-24T05:10:57.711Z,9.10
2023-04-24T05:13:38.960Z,9.10
2023-04-24T05:16:11.475Z,9.10
2023-04-24T05:18:40.261Z,9.20
2023-04-24T05:21:10.957Z,9.30
2023-04-24T05:23:41.782Z,9.30
2023-04-24T05:26:11.024Z,9.30
2023-04-24T05:28:38.955Z,9.30
2023-04-24T05:31:11.320Z,9.30
2023-04-24T05:33:39.408Z,9.40
2023-04-24T05:36:08.875Z,9.40
2023-04-24T05:38:37.490Z,9.50
2023-04-24T05:41:06.110Z,9.50
2023-04-24T05:43:35.395Z,9.60
2023-04-24T05:46:03.356Z,9.60
2023-04-24T05:48:31.771Z,9.70
2023-04-24T05:51:03.044Z,9.80
2023-04-24T05:53:30.984Z,9.90
2023-04-24T05:55:59.099Z,9.90
2023-04-24T05:58:27.029Z,9.80
2023-04-24T06:00:58.631Z,9.70
2023-04-24T06:03:28.305Z,9.80
2023-04-24T06:05:56.556Z,9.90
2023-04-24T06:08:25.297Z,10.00
2023-04-24T06:10:54.038Z,10.10
2023-04-24T06:13:24.315Z,10.20
2023-04-24T06:16:16.508Z,10.30
2023-04-24T06:18:51.432Z,10.40
2023-04-24T06:21:22.686Z,10.40
2023-04-24T06:23:50.708Z,10.50
2023-04-24T06:26:18.673Z,10.60
2023-04-24T06:28:46.506Z,10.60
2023-04-24T06:31:15.947Z,10.80
2023-04-24T06:33:44.419Z,10.80
2023-04-24T06:36:12.530Z,11.00
2023-04-24T06:38:40.474Z,11.10
2023-04-24T06:41:08.490Z,11.10
2023-04-24T06:43:36.462Z,10.90
2023-04-24T06:46:04.601Z,10.80
2023-04-24T06:48:33.992Z,11.00
2023-04-24T06:51:01.926Z,11.60
2023-04-24T06:53:29.821Z,11.80
2023-04-24T06:55:58.416Z,12.00
2023-04-24T06:58:26.791Z,12.20
2023-04-24T07:00:54.683Z,12.60
2023-04-24T07:03:23.515Z,13.00
2023-04-24T07:05:54.234Z,13.60
2023-04-24T07:08:23.029Z,13.70
2023-04-24T07:10:52.102Z,13.50
2023-04-24T07:13:19.968Z,13.30
2023-04-24T07:15:50.003Z,13.30
2023-04-24T07:18:18.434Z,13.20
2023-04-24T07:20:46.535Z,13.40
2023-04-24T07:23:16.641Z,13.80
2023-04-24T07:25:45.532Z,14.50
2023-04-24T07:28:13.627Z,14.60
2023-04-24T07:30:41.500Z,15.30
2023-04-24T07:33:09.407Z,16.00
2023-04-24T07:35:37.332Z,16.20
2023-04-24T07:38:05.214Z,16.10
2023-04-24T07:40:34.422Z,15.00
2023-04-24T07:43:02.316Z,14.40
2023-04-24T07:45:30.232Z,13.60
2023-04-24T07:47:58.312Z,13.10
2023-04-24T07:50:26.198Z,13.00
2023-04-24T07:52:54.584Z,12.80
2023-04-24T07:55:24.691Z,12.60
2023-04-24T07:57:55.913Z,12.60
2023-04-24T08:00:23.961Z,12.70
2023-04-24T08:02:52.120Z,12.90
2023-04-24T08:05:20.628Z,13.00
2023-04-24T08:07:49.663Z,13.20
2023-04-24T08:10:17.915Z,13.00
2023-04-24T08:12:46.350Z,12.90
2023-04-24T08:15:15.598Z,12.90
2023-04-24T08:17:43.471Z,12.90
2023-04-24T08:20:15.117Z,12.80
2023-04-24T08:22:43.368Z,12.90
2023-04-24T08:25:12.309Z,13.10
2023-04-24T08:27:40.754Z,13.30
2023-04-24T08:30:09.502Z,12.90
2023-04-24T08:32:38.934Z,12.50
2023-04-24T08:35:09.627Z,12.40
2023-04-24T08:37:38.215Z,12.20
2023-04-24T08:40:10.999Z,12.10
2023-04-24T08:42:40.123Z,11.90
2023-04-24T08:45:09.346Z,11.70
2023-04-24T08:47:40.422Z,11.50
2023-04-24T08:50:09.677Z,11.40
2023-04-24T08:52:37.736Z,11.30
2023-04-24T08:55:07.225Z,11.30
2023-04-24T08:57:36.859Z,11.60
2023-04-24T09:00:05.651Z,12.00
2023-04-24T09:02:35.980Z,12.50
2023-04-24T09:05:08.824Z,12.80
2023-04-24T09:07:37.982Z,12.40
2023-04-24T09:10:06.722Z,11.90
2023-04-24T09:12:35.158Z,11.60
2023-04-24T09:15:05.211Z,11.80
2023-04-24T09:17:34.191Z,12.30
2023-04-24T09:20:02.865Z,12.70
2023-04-24T09:22:33.238Z,12.80
2023-04-24T09:25:06.571Z,12.60
2023-04-24T09:27:34.668Z,12.40
2023-04-24T09:30:03.560Z,12.30
2023-04-24T09:32:32.801Z,12.30
2023-04-24T09:35:12.483Z,12.30
2023-04-24T09:37:44.650Z,12.60
2023-04-24T09:40:17.525Z,13.50
2023-04-24T09:42:47.259Z,14.50
2023-04-24T09:45:16.231Z,15.00
2023-04-24T09:47:45.095Z,14.80
2023-04-24T09:50:15.673Z,14.80
2023-04-24T09:52:48.015Z,15.30
2023-04-24T09:55:19.424Z,15.70
2023-04-24T09:57:51.863Z,15.70
2023-04-24T10:00:27.743Z,15.40
2023-04-24T10:03:00.285Z,15.60
2023-04-24T10:05:33.905Z,15.30
2023-04-24T10:08:08.063Z,15.50
2023-04-24T10:10:39.249Z,15.80
2023-04-24T10:13:08.398Z,15.80
2023-04-24T10:15:37.047Z,16.00
2023-04-24T10:18:07.441Z,15.90
2023-04-24T10:20:37.776Z,15.90
2023-04-24T10:23:07.638Z,16.20
2023-04-24T10:25:38.357Z,16.30
2023-04-24T10:28:08.405Z,16.60
2023-04-24T10:30:37.847Z,16.70
2023-04-24T10:33:06.809Z,16.70
2023-04-24T10:35:40.023Z,16.40
2023-04-24T10:38:13.092Z,15.90
2023-04-24T10:40:41.323Z,15.00
2023-04-24T10:43:11.907Z,14.80
2023-04-24T10:45:40.929Z,14.50
2023-04-24T10:48:12.130Z,14.20
2023-04-24T10:50:47.984Z,14.10
2023-04-24T10:53:19.050Z,13.90
2023-04-24T10:55:49.968Z,13.80
2023-04-24T10:58:18.665Z,13.80
2023-04-24T11:00:57.588Z,13.10
2023-04-24T11:03:27.849Z,12.20
2023-04-24T11:05:58.969Z,11.50
2023-04-24T11:08:31.315Z,11.30
2023-04-24T11:11:05.257Z,11.40
2023-04-24T11:14:07.507Z,11.60
2023-04-24T11:16:39.123Z,12.20
2023-04-24T11:19:09.418Z,13.00
2023-04-24T11:21:43.474Z,13.90
2023-04-24T11:24:28.622Z,15.70
2023-04-24T11:26:59.346Z,17.40
2023-04-24T11:29:44.821Z,18.10
2023-04-24T11:32:21.508Z,18.00
2023-04-24T11:34:50.582Z,17.50
2023-04-24T11:37:19.104Z,16.90
2023-04-24T11:39:48.414Z,17.60
2023-04-24T11:42:17.704Z,17.80
2023-04-24T11:44:48.497Z,17.30
2023-04-24T11:47:17.009Z,17.00
2023-04-24T11:49:44.846Z,16.20
2023-04-24T11:52:17.302Z,15.40
2023-04-24T11:54:51.270Z,15.10
2023-04-24T11:57:23.329Z,14.80
2023-04-24T11:59:51.626Z,14.60
2023-04-24T12:02:23.877Z,14.80
2023-04-24T12:04:52.323Z,15.60
2023-04-24T12:07:20.864Z,15.90
2023-04-24T12:09:52.683Z,15.70
2023-04-24T12:12:20.769Z,14.80
2023-04-24T12:14:52.687Z,13.90
2023-04-24T12:17:27.922Z,13.40
2023-04-24T12:20:00.381Z,13.30
2023-04-24T12:22:28.857Z,13.40
2023-04-24T12:25:02.904Z,13.50
2023-04-24T12:27:33.781Z,13.10
2023-04-24T12:30:04.685Z,12.70
2023-04-24T12:32:32.684Z,12.40
2023-04-24T12:35:01.128Z,12.60
2023-04-24T12:37:37.831Z,13.00
2023-04-24T12:40:09.616Z,13.60
2023-04-24T12:42:44.547Z,14.20
2023-04-24T12:45:13.110Z,14.40
2023-04-24T12:47:42.165Z,14.40
2023-04-24T12:50:11.524Z,14.20
2023-04-24T12:52:39.911Z,14.10
2023-04-24T12:55:10.102Z,13.60
2023-04-24T12:57:39.920Z,13.10
2023-04-24T13:00:09.648Z,12.60
2023-04-24T13:02:37.797Z,12.60
2023-04-24T13:05:06.443Z,12.80
2023-04-24T13:07:35.007Z,12.90
2023-04-24T13:10:02.916Z,13.00
2023-04-24T13:12:32.174Z,13.20
2023-04-24T13:15:00.713Z,13.50
2023-04-24T13:17:28.705Z,14.10
2023-04-24T13:19:57.072Z,14.30
2023-04-24T13:22:24.967Z,14.70
2023-04-24T13:24:52.923Z,14.90
2023-04-24T13:27:20.781Z,14.80
2023-04-24T13:29:50.015Z,14.50
2023-04-24T13:32:19.427Z,14.40
2023-04-24T13:34:48.111Z,14.30
2023-04-24T13:37:16.031Z,14.00
2023-04-24T13:39:43.936Z,13.90
2023-04-24T13:42:11.824Z,13.80
2023-04-24T13:44:39.824Z,13.40
2023-04-24T13:47:09.038Z,13.30
2023-04-24T13:49:37.201Z,13.50
2023-04-24T13:52:05.353Z,13.60
2023-04-24T13:54:33.738Z,13.30
2023-04-24T13:57:02.058Z,13.10
2023-04-24T13:59:30.217Z,13.10
2023-04-24T14:01:58.219Z,13.20
2023-04-24T14:04:27.960Z,13.10
2023-04-24T14:06:55.969Z,13.10
2023-04-24T14:09:23.836Z,13.70
2023-04-24T14:11:51.755Z,14.00
2023-04-24T14:14:19.613Z,14.00
2023-04-24T14:16:47.479Z,14.10
2023-04-24T14:19:15.374Z,14.30
2023-04-24T14:21:44.581Z,14.70
2023-04-24T14:24:12.469Z,14.90
2023-04-24T14:26:40.344Z,14.90
2023-04-24T14:29:14.696Z,15.10
2023-04-24T14:31:43.524Z,14.80
2023-04-24T14:34:11.668Z,14.80
2023-04-24T14:36:39.616Z,14.70
2023-04-24T14:39:09.437Z,14.70
2023-04-24T14:41:38.106Z,15.10
2023-04-24T14:44:06.504Z,15.30
2023-04-24T14:46:34.553Z,15.10
2023-04-24T14:49:02.547Z,15.10
2023-04-24T14:51:31.306Z,15.00
2023-04-24T14:53:59.204Z,14.60
2023-04-24T14:56:28.455Z,14.40
2023-04-24T14:58:56.974Z,14.10
2023-04-24T15:01:26.529Z,14.00
2023-04-24T15:03:55.055Z,14.00
2023-04-24T15:06:23.155Z,13.70
2023-04-24T15:08:51.124Z,13.70
2023-04-24T15:11:19.321Z,14.00
2023-04-24T15:13:48.761Z,14.30
2023-04-24T15:16:17.076Z,14.30
2023-04-24T15:18:45.038Z,14.40
2023-04-24T15:21:13.775Z,14.40
2023-04-24T15:23:41.690Z,14.50
2023-04-24T15:26:09.625Z,14.40
2023-04-24T15:28:37.554Z,14.40
2023-04-24T15:31:06.918Z,14.20
2023-04-24T15:33:34.800Z,14.00
2023-04-24T15:36:02.708Z,13.80
2023-04-24T15:38:30.639Z,13.70
2023-04-24T15:40:58.564Z,13.70
2023-04-24T15:43:26.435Z,13.60
2023-04-24T15:45:54.512Z,13.50
2023-04-24T15:48:23.737Z,13.70
2023-04-24T15:50:51.679Z,14.10
2023-04-24T15:53:22.340Z,14.10
2023-04-24T15:55:51.437Z,14.10
2023-04-24T15:58:20.454Z,14.00
2023-04-24T16:00:48.567Z,13.80
2023-04-24T16:03:16.641Z,13.80
2023-04-24T16:05:45.966Z,13.70
2023-04-24T16:08:15.223Z,13.50
2023-04-24T16:10:43.436Z,13.30
2023-04-24T16:13:11.310Z,13.20
2023-04-24T16:15:40.135Z,13.30
2023-04-24T16:18:08.152Z,13.30
2023-04-24T16:20:36.051Z,13.20
2023-04-24T16:23:05.416Z,13.10
2023-04-24T16:25:33.394Z,13.10
2023-04-24T16:28:01.405Z,13.10
2023-04-24T16:30:29.308Z,13.10
2023-04-24T16:32:57.224Z,13.10
2023-04-24T16:35:25.182Z,13.10
2023-04-24T16:37:53.310Z,13.10
2023-04-24T16:40:22.746Z,12.90
2023-04-24T16:42:51.501Z,12.70
2023-04-24T16:45:19.539Z,12.60
2023-04-24T16:47:47.576Z,12.50
2023-04-24T16:50:15.448Z,12.50
2023-04-24T16:52:43.439Z,12.50
2023-04-24T16:55:11.535Z,12.50
2023-04-24T16:57:40.772Z,12.40
2023-04-24T17:00:09.824Z,12.20
2023-04-24T17:02:37.799Z,12.20
2023-04-24T17:05:06.492Z,12.10
2023-04-24T17:07:34.472Z,12.20
2023-04-24T17:10:02.326Z,12.30
2023-04-24T17:12:30.681Z,12.40
2023-04-24T17:14:59.893Z,12.40
2023-04-24T17:17:28.159Z,12.20
2023-04-24T17:19:56.091Z,12.00
2023-04-24T17:22:23.972Z,11.80
2023-04-24T17:24:51.794Z,11.70
2023-04-24T17:27:19.694Z,11.70
2023-04-24T17:29:49.713Z,11.60
2023-04-24T17:32:18.966Z,11.60
2023-04-24T17:34:47.748Z,11.50
2023-04-24T17:37:15.901Z,11.50
2023-04-24T17:39:43.741Z,11.40
2023-04-24T17:42:11.575Z,11.40
2023-04-24T17:44:39.479Z,11.40
2023-04-24T17:47:07.363Z,11.30
2023-04-24T17:49:38.560Z,11.20
2023-04-24T17:52:06.689Z,11.10
2023-04-24T17:54:34.532Z,11.10
2023-04-24T17:57:02.884Z,11.00
2023-04-24T17:59:30.769Z,11.00
2023-04-24T18:01:58.643Z,10.90
2023-04-24T18:04:26.853Z,10.80
2023-04-24T18:06:56.247Z,10.70
2023-04-24T18:09:24.092Z,10.60
2023-04-24T18:11:51.963Z,10.60
2023-04-24T18:14:19.855Z,10.60
2023-04-24T18:16:47.711Z,10.50
2023-04-24T18:19:15.570Z,10.40
2023-04-24T18:21:43.413Z,10.40
2023-04-24T18:24:12.714Z,10.30
2023-04-24T18:26:40.551Z,10.20
2023-04-24T18:29:08.426Z,10.20
2023-04-24T18:31:36.388Z,10.10
2023-04-24T18:34:04.314Z,10.00
2023-04-24T18:36:33.126Z,9.90
2023-04-24T18:39:01.002Z,9.90
2023-04-24T18:41:30.214Z,9.70
2023-04-24T18:43:59.414Z,9.60
2023-04-24T18:46:27.366Z,9.50
2023-04-24T18:48:55.253Z,9.60
2023-04-24T18:51:23.557Z,9.50
2023-04-24T18:53:51.402Z,9.50
2023-04-24T18:56:19.357Z,9.30
2023-04-24T18:58:48.887Z,9.30
2023-04-24T19:01:17.112Z,9.30
2023-04-24T19:03:45.514Z,9.20
2023-04-24T19:06:13.508Z,9.10
2023-04-24T19:08:43.091Z,9.10
2023-04-24T19:11:11.165Z,9.10
2023-04-24T19:13:39.035Z,9.20
2023-04-24T19:16:08.281Z,9.20
2023-04-24T19:18:36.168Z,9.10
2023-04-24T19:21:04.085Z,9.20
2023-04-24T19:23:33.281Z,9.20
2023-04-24T19:26:01.157Z,9.10
2023-04-24T19:28:29.012Z,9.20
2023-04-24T19:30:58.601Z,9.20
2023-04-24T19:33:28.044Z,9.20
2023-04-24T19:35:58.191Z,9.20
2023-04-24T19:38:27.275Z,9.20
2023-04-24T19:40:55.425Z,9.20
2023-04-24T19:43:23.299Z,9.10
2023-04-24T19:45:51.850Z,9.00
2023-04-24T19:48:20.119Z,9.10
2023-04-24T19:50:49.469Z,9.10
2023-04-24T19:53:17.323Z,9.10
2023-04-24T19:55:45.186Z,9.00
2023-04-24T19:58:13.032Z,9.10
2023-04-24T20:00:41.740Z,9.10
2023-04-24T20:03:15.806Z,9.10
2023-04-24T20:05:51.092Z,9.10
2023-04-24T20:08:19.069Z,9.10
2023-04-24T20:10:46.972Z,9.10
2023-04-24T20:13:14.875Z,9.10
2023-04-24T20:15:43.128Z,9.10
2023-04-24T20:18:11.402Z,9.10
2023-04-24T20:20:41.560Z,9.10
2023-04-24T20:23:11.338Z,9.10
2023-04-24T20:25:39.318Z,9.10
2023-04-24T20:28:07.196Z,9.10
2023-04-24T20:30:35.681Z,8.90
2023-04-24T20:33:03.624Z,8.90
2023-04-24T20:35:31.497Z,8.90
2023-04-24T20:38:01.645Z,8.90
2023-04-24T20:40:31.800Z,8.80
2023-04-24T20:42:59.789Z,8.60
2023-04-24T20:45:28.113Z,8.50
2023-04-24T20:47:56.028Z,8.40
2023-04-24T20:50:25.367Z,8.40
2023-04-24T20:52:53.232Z,8.40
2023-04-24T20:55:21.280Z,8.30
2023-04-24T20:57:50.558Z,8.30
2023-04-24T21:00:18.408Z,8.20
2023-04-24T21:02:46.325Z,8.20
2023-04-24T21:05:14.314Z,8.20
2023-04-24T21:07:42.204Z,8.20
2023-04-24T21:10:10.994Z,8.00
2023-04-24T21:12:38.911Z,7.90
2023-04-24T21:15:09.180Z,8.00
2023-04-24T21:17:37.160Z,7.90
2023-04-24T21:20:05.396Z,7.90
2023-04-24T21:22:33.260Z,7.90
2023-04-24T21:25:01.142Z,7.80
2023-04-24T21:27:29.225Z,7.90
2023-04-24T21:29:57.220Z,7.80
2023-04-24T21:32:26.897Z,7.70
2023-04-24T21:34:54.800Z,7.70
2023-04-24T21:37:22.636Z,7.60
2023-04-24T21:39:50.521Z,7.60
2023-04-24T21:42:18.490Z,7.60
2023-04-24T21:44:46.375Z,7.50
2023-04-24T21:47:14.247Z,7.50
2023-04-24T21:49:43.491Z,7.50
2023-04-24T21:52:11.340Z,7.50
2023-04-24T21:54:39.188Z,7.50
2023-04-24T21:57:07.129Z,7.50
2023-04-24T21:59:35.734Z,7.40
2023-04-24T22:02:03.614Z,7.40
2023-04-24T22:04:32.086Z,7.40
2023-04-24T22:07:01.514Z,7.40
2023-04-24T22:09:29.393Z,7.40
2023-04-24T22:11:57.313Z,7.40
2023-04-24T22:14:25.277Z,7.30
2023-04-24T22:16:53.166Z,7.30
2023-04-24T22:19:21.012Z,7.30
2023-04-24T22:21:48.881Z,7.30
2023-04-24T22:24:19.173Z,7.30
2023-04-24T22:26:47.106Z,7.20
2023-04-24T22:29:15.151Z,7.10
2023-04-24T22:31:43.175Z,7.10
2023-04-24T22:34:11.236Z,7.10
2023-04-24T22:36:39.076Z,7.00
2023-04-24T22:39:07.292Z,7.00
2023-04-24T22:41:36.565Z,7.00
2023-04-24T22:44:04.492Z,7.00
2023-04-24T22:46:32.417Z,7.00
2023-04-24T22:49:00.328Z,7.00
2023-04-24T22:51:29.588Z,7.00
2023-04-24T22:53:57.421Z,7.00
2023-04-24T22:56:26.046Z,7.00
2023-04-24T22:58:55.232Z,7.00
2023-04-24T23:01:23.263Z,7.00
2023-04-24T23:03:51.480Z,7.00
2023-04-24T23:06:20.540Z,7.10
2023-04-24T23:08:48.398Z,7.10
2023-04-24T23:11:16.339Z,7.10
2023-04-24T23:13:44.299Z,7.10
2023-04-24T23:16:13.564Z,7.10
2023-04-24T23:18:41.504Z,7.00
2023-04-24T23:21:09.371Z,7.10
2023-04-24T23:23:37.225Z,7.10
2023-04-24T23:26:05.356Z,7.10
2023-04-24T23:28:33.246Z,7.10
2023-04-24T23:31:01.087Z,7.10
2023-04-24T23:33:30.428Z,7.10
2023-04-24T23:35:59.006Z,7.10
2023-04-24T23:38:30.134Z,7.10
2023-04-24T23:41:02.267Z,7.20
2023-04-24T23:43:30.085Z,7.10
2023-04-24T23:45:57.982Z,7.20
2023-04-24T23:48:25.885Z,7.10
2023-04-24T23:50:55.262Z,7.20
2023-04-24T23:53:23.174Z,7.20
2023-04-24T23:55:51.123Z,7.10
2023-04-24T23:58:18.986Z,7.10
